Terminal Aerodrome Forecast
Issued by NWS

Home | Current Version | Previous Version | Graphics & Text | Print | Product List | Glossary On
Versions: 1 2 3 4 5 6 7 8 9 10 11 12 13 14 15 16 17 18 19 20 21 22 23 24 25
000
FTUS43 KBIS 261100 RRA
TAFMOT
TAF
KMOT 261143Z 2612/2712 16006KT 3SM -RA BR BKN015 OVC035
      TEMPO 2612/2616 5SM BR OVC015
     FM261600 17007KT P6SM VCSH BKN020 OVC035
     FM262100 17008KT P6SM VCSH SCT015 OVC035
     FM270400 24005KT 5SM BR VCSH SCT015 OVC035
     FM270700 30007KT 3SM BR VCSH BKN035 OVC050=

USA.gov is the U.S. government's official web portal to all federal, state and local government web resources and services.